createdAt,value
2018-09-03T00:01:15.859Z,5.93
2018-09-03T00:03:45.654Z,6.13
2018-09-03T00:06:16.401Z,6.77
2018-09-03T00:08:46.325Z,6.67
2018-09-03T00:11:16.368Z,6.27
2018-09-03T00:13:46.324Z,6.47
2018-09-03T00:16:16.356Z,6.77
2018-09-03T00:18:46.367Z,6.50
2018-09-03T00:21:16.970Z,6.10
2018-09-03T00:23:46.722Z,6.43
2018-09-03T00:26:16.689Z,5.40
2018-09-03T00:28:46.640Z,5.17
2018-09-03T00:31:27.047Z,5.73
2018-09-03T00:34:02.125Z,6.50
2018-09-03T00:37:37.048Z,6.20
2018-09-03T00:40:12.279Z,6.13
2018-09-03T00:42:47.291Z,6.27
2018-09-03T00:48:18.579Z,6.37
2018-09-03T00:50:48.614Z,6.17
2018-09-03T00:53:18.719Z,6.23
2018-09-03T00:55:48.859Z,6.83
2018-09-03T00:58:18.873Z,7.23
2018-09-03T01:00:48.874Z,5.70
2018-09-03T01:03:18.897Z,6.63
2018-09-03T01:05:48.948Z,6.30
2018-09-03T01:08:18.966Z,6.00
2018-09-03T01:10:48.950Z,6.47
2018-09-03T01:13:18.870Z,6.10
2018-09-03T01:15:52.720Z,6.23
2018-09-03T01:18:22.708Z,5.93
2018-09-03T01:20:52.791Z,6.23
2018-09-03T01:23:22.798Z,5.67
2018-09-03T01:26:04.039Z,5.77
2018-09-03T01:28:34.364Z,5.97
2018-09-03T01:31:05.066Z,5.47
2018-09-03T01:33:35.562Z,5.83
2018-09-03T01:36:05.792Z,6.30
2018-09-03T01:38:36.463Z,5.90
2018-09-03T01:41:17.055Z,5.93
2018-09-03T01:43:47.370Z,6.20
2018-09-03T01:46:17.150Z,5.73
2018-09-03T01:48:47.031Z,6.67
2018-09-03T01:51:16.882Z,6.57
2018-09-03T01:53:46.783Z,6.67
2018-09-03T01:56:27.590Z,6.90
2018-09-03T01:58:57.572Z,6.70
2018-09-03T02:01:27.487Z,6.27
2018-09-03T02:04:11.017Z,6.83
2018-09-03T02:06:41.464Z,7.83
2018-09-03T02:09:12.980Z,6.80
2018-09-03T02:11:55.589Z,7.20
2018-09-03T02:14:25.598Z,7.57
2018-09-03T02:16:55.310Z,8.37
2018-09-03T02:19:25.333Z,9.33
2018-09-03T02:21:55.282Z,8.30
2018-09-03T02:24:33.071Z,7.87
2018-09-03T02:27:03.342Z,7.70
2018-09-03T02:29:33.360Z,7.27
2018-09-03T02:32:03.624Z,6.13
2018-09-03T02:34:33.637Z,6.43
2018-09-03T02:37:03.377Z,7.03
2018-09-03T02:39:33.433Z,6.47
2018-09-03T02:42:03.158Z,7.43
2018-09-03T02:44:33.334Z,7.13
2018-09-03T02:47:03.219Z,7.30
2018-09-03T02:49:33.223Z,7.17
2018-09-03T02:52:03.391Z,7.77
2018-09-03T02:54:33.310Z,7.37
2018-09-03T02:57:03.277Z,7.77
2018-09-03T02:59:33.239Z,8.20
2018-09-03T03:02:03.722Z,7.90
2018-09-03T03:04:33.806Z,7.30
2018-09-03T03:07:03.794Z,9.23
2018-09-03T03:09:33.852Z,7.50
2018-09-03T03:12:04.865Z,7.80
2018-09-03T03:14:34.776Z,8.23
2018-09-03T03:17:05.237Z,7.80
2018-09-03T03:19:35.373Z,8.00
2018-09-03T03:22:05.394Z,8.83
2018-09-03T03:24:35.506Z,7.43
2018-09-03T03:27:05.631Z,8.80
2018-09-03T03:29:35.550Z,9.43
2018-09-03T03:32:05.591Z,8.80
2018-09-03T03:34:35.538Z,9.83
2018-09-03T03:37:06.282Z,8.93
2018-09-03T03:39:36.352Z,9.23
2018-09-03T03:42:06.673Z,9.93
2018-09-03T03:44:36.950Z,9.20
2018-09-03T03:47:07.095Z,9.60
2018-09-03T03:49:36.975Z,9.03
2018-09-03T03:52:07.574Z,10.67
2018-09-03T03:54:37.446Z,9.53
2018-09-03T03:57:08.106Z,9.93
2018-09-03T03:59:38.046Z,10.30
2018-09-03T04:02:10.039Z,9.23
2018-09-03T04:04:40.159Z,10.10
2018-09-03T04:07:10.024Z,9.10
2018-09-03T04:09:40.050Z,9.97
2018-09-03T04:12:09.889Z,9.17
2018-09-03T04:14:39.862Z,9.83
2018-09-03T04:17:10.016Z,10.37
2018-09-03T04:19:39.814Z,11.77
2018-09-03T04:22:09.734Z,11.87
2018-09-03T04:24:39.900Z,10.87
2018-09-03T04:27:09.690Z,11.30
2018-09-03T04:29:39.839Z,10.50
2018-09-03T04:32:09.773Z,11.07
2018-09-03T04:34:39.485Z,10.63
2018-09-03T04:37:09.197Z,10.20
2018-09-03T04:39:38.919Z,11.00
2018-09-03T04:42:08.663Z,10.43
2018-09-03T04:44:38.256Z,12.13
2018-09-03T04:47:07.681Z,10.47
2018-09-03T04:49:39.354Z,11.37
2018-09-03T04:52:08.716Z,11.03
2018-09-03T04:54:38.383Z,10.73
2018-09-03T04:57:07.853Z,9.63
2018-09-03T04:59:37.401Z,11.20
2018-09-03T05:02:07.034Z,10.90
2018-09-03T05:04:36.425Z,11.00
2018-09-03T05:07:06.047Z,10.63
2018-09-03T05:09:35.767Z,10.83
2018-09-03T05:12:07.068Z,11.37
2018-09-03T05:14:36.913Z,11.03
2018-09-03T05:17:06.906Z,11.57
2018-09-03T05:19:36.878Z,11.27
2018-09-03T05:22:08.529Z,9.00
2018-09-03T05:24:38.057Z,11.17
2018-09-03T05:27:12.485Z,10.97
2018-09-03T05:29:41.969Z,11.93
2018-09-03T05:32:11.489Z,9.67
2018-09-03T05:34:40.981Z,11.97
2018-09-03T05:37:10.516Z,11.47
2018-09-03T05:39:40.006Z,10.83
2018-09-03T05:42:09.559Z,11.73
2018-09-03T05:44:39.054Z,11.80
2018-09-03T05:47:08.613Z,11.43
2018-09-03T05:49:40.057Z,10.83
2018-09-03T05:52:09.603Z,11.10
2018-09-03T05:54:39.141Z,11.70
2018-09-03T05:57:08.611Z,11.80
2018-09-03T05:59:38.085Z,12.27
2018-09-03T06:02:07.669Z,12.53
2018-09-03T06:04:37.099Z,11.03
2018-09-03T06:07:07.057Z,12.03
2018-09-03T06:09:36.583Z,11.77
2018-09-03T06:12:07.729Z,12.50
2018-09-03T06:14:37.096Z,11.40
2018-09-03T06:17:06.954Z,12.20
2018-09-03T06:19:36.691Z,11.93
2018-09-03T06:22:07.129Z,12.23
2018-09-03T06:24:36.745Z,12.37
2018-09-03T06:27:06.828Z,12.83
2018-09-03T06:29:37.120Z,12.53
2018-09-03T06:32:07.199Z,12.83
2018-09-03T06:34:37.277Z,11.50
2018-09-03T06:37:08.150Z,12.80
2018-09-03T06:39:38.100Z,11.93
2018-09-03T06:42:08.584Z,11.33
2018-09-03T06:44:45.494Z,11.70
2018-09-03T06:47:15.746Z,10.90
2018-09-03T06:49:45.834Z,11.60
2018-09-03T06:52:15.623Z,11.90
2018-09-03T06:54:45.458Z,10.87
2018-09-03T06:57:15.422Z,10.60
2018-09-03T06:59:45.543Z,10.47
2018-09-03T07:02:15.622Z,11.43
2018-09-03T07:04:45.462Z,11.67
2018-09-03T07:07:15.466Z,11.50
2018-09-03T07:09:45.599Z,11.97
2018-09-03T07:12:15.627Z,12.20
2018-09-03T07:14:45.499Z,12.90
2018-09-03T07:17:15.466Z,13.57
2018-09-03T07:19:45.596Z,14.20
2018-09-03T07:22:15.531Z,13.27
2018-09-03T07:24:45.570Z,12.67
2018-09-03T07:27:15.527Z,13.07
2018-09-03T07:29:45.780Z,13.27
2018-09-03T07:32:15.789Z,14.33
2018-09-03T07:34:46.123Z,12.10
2018-09-03T07:37:16.110Z,12.30
2018-09-03T07:39:49.721Z,12.70
2018-09-03T07:42:19.813Z,13.20
2018-09-03T07:44:49.726Z,11.90
2018-09-03T07:47:20.059Z,11.27
2018-09-03T07:49:49.978Z,12.67
2018-09-03T07:52:32.801Z,11.47
2018-09-03T07:55:02.767Z,11.27
2018-09-03T07:57:33.666Z,11.07
2018-09-03T08:00:04.028Z,11.93
2018-09-03T08:02:33.778Z,10.87
2018-09-03T08:05:04.175Z,11.40
2018-09-03T08:07:36.475Z,10.73
2018-09-03T08:10:06.373Z,12.10
2018-09-03T08:12:36.382Z,10.70
2018-09-03T08:15:07.078Z,11.20
2018-09-03T08:17:37.091Z,12.07
2018-09-03T08:20:07.994Z,11.73
2018-09-03T08:22:38.382Z,11.87
2018-09-03T08:25:08.394Z,11.07
2018-09-03T08:27:38.185Z,12.07
2018-09-03T08:30:09.138Z,11.93
2018-09-03T08:32:39.021Z,12.63
2018-09-03T08:35:08.912Z,13.33
2018-09-03T08:37:39.322Z,12.17
2018-09-03T08:40:09.462Z,12.47
2018-09-03T08:42:39.442Z,12.93
2018-09-03T08:45:10.168Z,12.97
2018-09-03T08:47:40.210Z,11.40
2018-09-03T08:50:10.028Z,11.70
2018-09-03T08:52:40.483Z,12.17
2018-09-03T08:55:10.670Z,11.17
2018-09-03T08:57:40.593Z,12.17
2018-09-03T09:00:10.985Z,10.60
2018-09-03T09:02:41.015Z,10.93
2018-09-03T09:05:11.063Z,11.30
2018-09-03T09:07:41.287Z,11.90
2018-09-03T09:10:11.315Z,11.73
2018-09-03T09:12:41.134Z,11.10
2018-09-03T09:15:11.434Z,11.90
2018-09-03T09:17:41.440Z,12.17
2018-09-03T09:20:17.641Z,11.07
2018-09-03T09:22:47.415Z,11.50
2018-09-03T09:25:22.176Z,11.97
2018-09-03T09:27:52.328Z,11.37
2018-09-03T09:30:22.258Z,12.03
2018-09-03T09:32:52.639Z,10.63
2018-09-03T09:35:22.384Z,12.00
2018-09-03T09:37:53.738Z,11.03
2018-09-03T09:40:24.146Z,11.60
2018-09-03T09:42:54.211Z,12.40
2018-09-03T09:45:23.854Z,12.50
2018-09-03T09:47:53.818Z,12.53
2018-09-03T09:50:30.371Z,12.53
2018-09-03T09:53:00.556Z,12.53
2018-09-03T09:55:31.002Z,12.27
2018-09-03T09:58:00.750Z,13.50
2018-09-03T10:00:36.295Z,13.07
2018-09-03T10:03:06.991Z,12.93
2018-09-03T10:05:41.877Z,12.73
2018-09-03T10:08:11.872Z,13.00
2018-09-03T10:10:41.889Z,11.50
2018-09-03T10:13:12.003Z,11.60
2018-09-03T10:15:48.915Z,12.67
2018-09-03T10:18:18.819Z,10.65
2018-09-03T10:20:48.811Z,10.10
2018-09-03T10:23:18.658Z,11.30
2018-09-03T10:25:48.629Z,13.70
2018-09-03T10:28:18.521Z,12.60
2018-09-03T10:30:48.754Z,11.57
2018-09-03T10:33:18.985Z,12.83
2018-09-03T10:35:49.035Z,11.77
2018-09-03T10:38:25.801Z,12.10
2018-09-03T10:40:55.756Z,12.25
2018-09-03T10:43:25.774Z,11.40
2018-09-03T10:45:55.702Z,13.17
2018-09-03T10:48:25.558Z,11.03
2018-09-03T10:50:55.950Z,11.70
2018-09-03T10:53:25.629Z,11.33
2018-09-03T10:55:56.015Z,12.20
2018-09-03T10:58:26.585Z,12.77
2018-09-03T11:00:56.764Z,11.40
2018-09-03T11:03:38.554Z,10.77
2018-09-03T11:06:08.941Z,11.53
2018-09-03T11:08:38.694Z,11.63
2018-09-03T11:11:08.584Z,10.58
2018-09-03T11:13:38.661Z,10.68
2018-09-03T11:16:20.663Z,10.55
2018-09-03T11:18:50.769Z,9.38
2018-09-03T11:21:20.907Z,10.10
2018-09-03T11:23:54.982Z,10.40
2018-09-03T11:26:25.130Z,8.65
2018-09-03T11:28:55.076Z,8.88
2018-09-03T11:31:24.975Z,9.20
2018-09-03T11:33:55.312Z,8.60
2018-09-03T11:36:32.224Z,7.92
2018-09-03T11:39:02.746Z,9.95
2018-09-03T11:41:32.987Z,8.33
2018-09-03T11:44:03.694Z,8.73
2018-09-03T11:46:34.285Z,7.08
2018-09-03T11:49:04.158Z,7.58
2018-09-03T11:51:35.617Z,7.95
2018-09-03T11:54:06.497Z,8.68
2018-09-03T11:56:36.880Z,8.20
2018-09-03T11:59:07.406Z,7.78
2018-09-03T12:01:37.777Z,8.35
2018-09-03T12:04:07.785Z,7.85
2018-09-03T12:06:38.428Z,7.53
2018-09-03T12:09:10.876Z,8.28
2018-09-03T12:11:41.372Z,7.25
2018-09-03T12:14:20.846Z,8.40
2018-09-03T12:16:50.865Z,7.22
2018-09-03T12:19:20.529Z,6.95
2018-09-03T12:21:50.416Z,5.87
2018-09-03T12:24:22.014Z,6.87
2018-09-03T12:27:03.657Z,6.50
2018-09-03T12:29:33.631Z,6.72
2018-09-03T12:32:03.030Z,6.08
2018-09-03T12:34:33.081Z,6.75
2018-09-03T12:37:02.668Z,7.10
2018-09-03T12:39:32.079Z,5.60
2018-09-03T12:42:01.677Z,5.95
2018-09-03T12:44:31.925Z,6.00
2018-09-03T12:47:02.064Z,6.30
2018-09-03T12:49:31.927Z,5.95
2018-09-03T12:52:01.855Z,6.35
2018-09-03T12:54:32.794Z,5.80
2018-09-03T12:57:02.893Z,5.87
2018-09-03T12:59:32.732Z,5.75
2018-09-03T13:02:02.160Z,6.53
2018-09-03T13:04:31.835Z,5.97
2018-09-03T13:07:01.265Z,6.58
2018-09-03T13:09:31.381Z,5.25
2018-09-03T13:12:01.354Z,5.40
2018-09-03T13:14:32.364Z,4.42
2018-09-03T13:17:01.890Z,4.70
2018-09-03T13:19:36.573Z,4.62
2018-09-03T13:22:06.908Z,4.25
2018-09-03T13:24:37.609Z,5.40
2018-09-03T13:27:08.362Z,5.22
2018-09-03T13:29:38.334Z,4.70
2018-09-03T13:32:07.941Z,4.33
2018-09-03T13:34:37.926Z,4.95
2018-09-03T13:37:07.503Z,4.80
2018-09-03T13:39:37.946Z,5.10
2018-09-03T13:42:08.158Z,4.47
2018-09-03T13:44:38.310Z,5.00
2018-09-03T13:47:08.005Z,4.33
2018-09-03T13:49:38.098Z,5.35
2018-09-03T13:52:08.129Z,5.15
2018-09-03T13:54:38.044Z,5.55
2018-09-03T13:57:08.509Z,5.30
2018-09-03T13:59:38.545Z,4.75
2018-09-03T14:02:09.118Z,4.80
2018-09-03T14:04:39.496Z,4.47
2018-09-03T14:07:09.572Z,3.65
2018-09-03T14:09:40.222Z,3.60
2018-09-03T14:12:10.574Z,3.67
2018-09-03T14:14:41.541Z,3.33
2018-09-03T14:17:11.757Z,3.15
2018-09-03T14:19:42.577Z,3.77
2018-09-03T14:22:12.661Z,4.20
2018-09-03T14:24:42.641Z,3.10
2018-09-03T14:27:12.718Z,3.58
2018-09-03T14:29:44.005Z,3.27
2018-09-03T14:32:14.856Z,3.62
2018-09-03T14:34:44.831Z,2.77
2018-09-03T14:37:16.889Z,2.95
2018-09-03T14:39:46.861Z,2.80
2018-09-03T14:42:16.902Z,2.85
2018-09-03T14:44:46.793Z,2.72
2018-09-03T14:47:16.917Z,2.83
2018-09-03T14:49:47.830Z,3.35
2018-09-03T14:52:18.067Z,3.10
2018-09-03T14:54:48.145Z,2.95
2018-09-03T14:57:17.896Z,3.55
2018-09-03T14:59:47.834Z,2.70
2018-09-03T15:02:17.868Z,2.60
2018-09-03T15:04:48.003Z,3.27
2018-09-03T15:07:17.910Z,3.47
2018-09-03T15:09:48.055Z,3.83
2018-09-03T15:12:18.133Z,3.92
2018-09-03T15:14:48.262Z,4.10
2018-09-03T15:17:18.458Z,3.83
2018-09-03T15:19:48.526Z,3.70
2018-09-03T15:22:18.250Z,3.77
2018-09-03T15:24:48.093Z,3.67
2018-09-03T15:27:19.041Z,3.20
2018-09-03T15:29:49.166Z,2.90
2018-09-03T15:32:18.938Z,3.37
2018-09-03T15:34:49.091Z,3.47
2018-09-03T15:37:19.162Z,3.50
2018-09-03T15:39:54.766Z,3.58
2018-09-03T15:42:25.330Z,3.70
2018-09-03T15:44:55.030Z,3.52
2018-09-03T15:47:30.224Z,3.08
2018-09-03T15:49:59.994Z,3.20
2018-09-03T15:52:29.772Z,2.80
2018-09-03T15:55:00.247Z,3.60
2018-09-03T15:57:30.310Z,3.45
2018-09-03T16:00:01.244Z,3.67
2018-09-03T16:02:31.886Z,3.30
2018-09-03T16:05:01.572Z,5.70
2018-09-03T16:07:31.282Z,4.78
2018-09-03T16:10:01.242Z,3.80
2018-09-03T16:12:32.001Z,4.40
2018-09-03T16:15:01.664Z,3.90
2018-09-03T16:17:31.854Z,3.42
2018-09-03T16:20:01.578Z,4.03
2018-09-03T16:22:31.257Z,3.60
2018-09-03T16:25:01.045Z,3.70
2018-09-03T16:27:30.834Z,3.57
2018-09-03T16:30:00.653Z,3.47
2018-09-03T16:32:30.832Z,3.07
2018-09-03T16:35:00.726Z,3.58
2018-09-03T16:37:30.404Z,3.47
2018-09-03T16:40:00.162Z,3.67
2018-09-03T16:42:40.094Z,3.50
2018-09-03T16:45:09.798Z,3.27
2018-09-03T16:47:39.479Z,3.10
2018-09-03T16:50:09.234Z,3.40
2018-09-03T16:52:38.933Z,3.30
2018-09-03T16:55:08.638Z,3.33
2018-09-03T16:57:40.326Z,3.00
2018-09-03T17:00:10.123Z,3.27
2018-09-03T17:02:40.198Z,3.50
2018-09-03T17:05:13.756Z,3.23
2018-09-03T17:07:43.592Z,3.30
2018-09-03T17:10:17.987Z,3.13
2018-09-03T17:12:47.803Z,3.13
2018-09-03T17:15:18.091Z,3.40
2018-09-03T17:17:48.562Z,3.17
2018-09-03T17:20:18.544Z,3.60
2018-09-03T17:22:48.353Z,3.53
2018-09-03T17:25:18.505Z,3.47
2018-09-03T17:27:48.408Z,3.53
2018-09-03T17:30:18.151Z,3.43
2018-09-03T17:32:48.149Z,4.03
2018-09-03T17:35:18.453Z,4.00
2018-09-03T17:37:52.826Z,3.73
2018-09-03T17:40:22.766Z,4.53
2018-09-03T17:42:52.683Z,3.90
2018-09-03T17:45:22.338Z,4.07
2018-09-03T17:47:52.029Z,4.07
2018-09-03T17:50:22.259Z,4.33
2018-09-03T17:52:52.394Z,3.90
2018-09-03T17:55:22.467Z,3.97
2018-09-03T17:57:52.166Z,4.10
2018-09-03T18:00:22.538Z,3.27
2018-09-03T18:02:52.297Z,4.07
2018-09-03T18:05:22.262Z,3.83
2018-09-03T18:07:52.406Z,3.73
2018-09-03T18:10:22.866Z,4.90
2018-09-03T18:12:52.709Z,4.87
2018-09-03T18:15:23.112Z,3.80
2018-09-03T18:17:56.004Z,5.03
2018-09-03T18:20:26.517Z,8.13
2018-09-03T18:22:56.899Z,13.63
2018-09-03T18:25:46.558Z,8.27
2018-09-03T18:28:16.933Z,4.63
2018-09-03T18:30:47.241Z,4.83
2018-09-03T18:33:17.429Z,4.90
2018-09-03T18:35:47.957Z,5.00
2018-09-03T18:38:18.678Z,4.50
2018-09-03T18:40:49.986Z,4.43
2018-09-03T18:43:20.705Z,5.17
2018-09-03T18:45:51.230Z,4.80
2018-09-03T18:48:21.294Z,4.50
2018-09-03T18:50:52.639Z,5.00
2018-09-03T18:53:24.192Z,4.00
2018-09-03T18:55:55.744Z,4.07
2018-09-03T18:58:27.151Z,5.03
2018-09-03T19:00:57.842Z,4.93
2018-09-03T19:03:33.143Z,4.87
2018-09-03T19:06:03.198Z,5.57
2018-09-03T19:08:33.209Z,6.33
2018-09-03T19:11:05.484Z,6.80
2018-09-03T19:13:42.364Z,6.40
2018-09-03T19:16:12.891Z,6.53
2018-09-03T19:18:43.436Z,6.73
2018-09-03T19:21:13.820Z,8.90
2018-09-03T19:23:43.515Z,7.70
2018-09-03T19:26:15.266Z,8.03
2018-09-03T19:28:45.533Z,7.43
2018-09-03T19:31:16.466Z,8.83
2018-09-03T19:33:46.427Z,7.60
2018-09-03T19:36:16.979Z,7.27
2018-09-03T19:38:46.564Z,7.60
2018-09-03T19:41:17.336Z,6.30
2018-09-03T19:43:47.346Z,7.47
2018-09-03T19:46:20.371Z,7.10
2018-09-03T19:48:50.459Z,8.93
2018-09-03T19:51:20.917Z,14.87
2018-09-03T19:53:50.513Z,15.47
2018-09-03T19:56:20.489Z,14.73
2018-09-03T19:58:50.609Z,8.87
2018-09-03T20:01:21.579Z,8.83
2018-09-03T20:03:52.617Z,9.37
2018-09-03T20:06:23.550Z,9.30
2018-09-03T20:08:56.488Z,8.33
2018-09-03T20:11:26.775Z,8.03
2018-09-03T20:14:04.855Z,8.63
2018-09-03T20:16:35.627Z,6.80
2018-09-03T20:19:06.186Z,6.70
2018-09-03T20:21:39.264Z,6.63
2018-09-03T20:24:09.190Z,6.60
2018-09-03T20:26:39.643Z,5.77
2018-09-03T20:29:09.589Z,5.90
2018-09-03T20:31:43.726Z,6.00
2018-09-03T20:34:14.700Z,5.87
2018-09-03T20:36:45.229Z,5.33
2018-09-03T20:39:15.307Z,5.67
2018-09-03T20:41:44.885Z,5.60
2018-09-03T20:44:14.741Z,5.03
2018-09-03T20:46:44.993Z,5.00
2018-09-03T20:49:15.691Z,5.70
2018-09-03T20:51:45.799Z,4.90
2018-09-03T20:54:18.737Z,5.37
2018-09-03T20:56:49.941Z,6.40
2018-09-03T20:59:21.821Z,6.83
2018-09-03T21:01:52.417Z,6.43
2018-09-03T21:04:22.805Z,6.40
2018-09-03T21:06:52.807Z,6.33
2018-09-03T21:09:24.831Z,7.23
2018-09-03T21:11:55.005Z,6.47
2018-09-03T21:14:25.006Z,5.97
2018-09-03T21:16:55.061Z,5.70
2018-09-03T21:19:24.870Z,5.30
2018-09-03T21:21:56.348Z,5.70
2018-09-03T21:24:26.066Z,5.43
2018-09-03T21:26:55.908Z,4.93
2018-09-03T21:29:25.958Z,5.10
2018-09-03T21:31:56.067Z,5.93
2018-09-03T21:34:25.958Z,5.63
2018-09-03T21:36:55.997Z,5.07
2018-09-03T21:39:25.952Z,5.20
2018-09-03T21:41:55.992Z,6.00
2018-09-03T21:44:26.032Z,5.30
2018-09-03T21:46:57.033Z,5.63
2018-09-03T21:49:27.319Z,5.73
2018-09-03T21:51:58.675Z,5.23
2018-09-03T21:54:28.980Z,5.17
2018-09-03T21:57:00.062Z,4.80
2018-09-03T21:59:30.731Z,5.30
2018-09-03T22:02:01.648Z,5.20
2018-09-03T22:04:32.113Z,5.03
2018-09-03T22:07:03.142Z,5.03
2018-09-03T22:09:33.338Z,4.80
2018-09-03T22:12:03.417Z,4.87
2018-09-03T22:14:39.861Z,4.53
2018-09-03T22:17:10.478Z,4.93
2018-09-03T22:19:40.862Z,4.93
2018-09-03T22:22:11.331Z,5.97
2018-09-03T22:24:41.722Z,5.07
2018-09-03T22:27:11.887Z,4.97
2018-09-03T22:29:41.915Z,4.60
2018-09-03T22:32:14.421Z,4.80
2018-09-03T22:34:47.419Z,4.50
2018-09-03T22:37:17.583Z,5.10
2018-09-03T22:39:47.856Z,4.73
2018-09-03T22:42:18.400Z,4.67
2018-09-03T22:45:03.382Z,4.00
2018-09-03T22:47:33.900Z,4.50
2018-09-03T22:50:04.507Z,4.50
2018-09-03T22:52:35.314Z,4.90
2018-09-03T22:55:05.962Z,3.97
2018-09-03T22:57:36.516Z,4.67
2018-09-03T23:00:07.374Z,4.33
2018-09-03T23:03:01.990Z,4.67
2018-09-03T23:05:32.103Z,4.50
2018-09-03T23:08:02.611Z,4.60
2018-09-03T23:10:33.689Z,4.60
2018-09-03T23:13:08.039Z,4.37
2018-09-03T23:15:38.394Z,5.00
2018-09-03T23:18:08.579Z,4.10
2018-09-03T23:20:38.695Z,4.40
2018-09-03T23:23:08.735Z,4.63
2018-09-03T23:25:39.086Z,5.10
2018-09-03T23:28:09.638Z,4.93
2018-09-03T23:30:39.835Z,4.90
2018-09-03T23:33:10.174Z,4.43
2018-09-03T23:35:40.617Z,4.40
2018-09-03T23:38:14.100Z,4.23
2018-09-03T23:40:44.286Z,4.63
2018-09-03T23:43:14.727Z,4.37
2018-09-03T23:45:45.248Z,4.83
2018-09-03T23:48:15.656Z,4.43
2018-09-03T23:50:45.793Z,4.57
2018-09-03T23:53:15.870Z,4.30
2018-09-03T23:55:46.189Z,4.37
2018-09-03T23:58:16.266Z,4.13
